地図

経路データ

SID SEASON NUMBER BASIN SUBBASIN NAME ISO_TIME NATURE LAT LON WMO_WIND WMO_PRES WMO_AGENCY TRACK_TYPE DIST2LAND LANDFALL IFLAG USA_AGENCY USA_ATCF_ID USA_LAT USA_LON USA_RECORD USA_STATUS USA_WIND USA_PRES USA_SSHS USA_R34_NE USA_R34_SE USA_R34_SW USA_R34_NW USA_R50_NE USA_R50_SE USA_R50_SW USA_R50_NW USA_R64_NE USA_R64_SE USA_R64_SW USA_R64_NW USA_POCI USA_ROCI USA_RMW USA_EYE TOKYO_LAT TOKYO_LON TOKYO_GRADE TOKYO_WIND TOKYO_PRES TOKYO_R50_DIR TOKYO_R50_LONG TOKYO_R50_SHORT TOKYO_R30_DIR TOKYO_R30_LONG TOKYO_R30_SHORT TOKYO_LAND CMA_LAT CMA_LON CMA_CAT CMA_WIND CMA_PRES HKO_LAT HKO_LON HKO_CAT HKO_WIND HKO_PRES NEWDELHI_LAT NEWDELHI_LON NEWDELHI_GRADE NEWDELHI_WIND NEWDELHI_PRES NEWDELHI_CI NEWDELHI_DP NEWDELHI_POCI REUNION_LAT REUNION_LON REUNION_TYPE REUNION_WIND REUNION_PRES REUNION_TNUM REUNION_CI REUNION_RMW REUNION_R34_NE REUNION_R34_SE REUNION_R34_SW REUNION_R34_NW REUNION_R50_NE REUNION_R50_SE REUNION_R50_SW REUNION_R50_NW REUNION_R64_NE REUNION_R64_SE REUNION_R64_SW REUNION_R64_NW BOM_LAT BOM_LON BOM_TYPE BOM_WIND BOM_PRES BOM_TNUM BOM_CI BOM_RMW BOM_R34_NE BOM_R34_SE BOM_R34_SW BOM_R34_NW BOM_R50_NE BOM_R50_SE BOM_R50_SW BOM_R50_NW BOM_R64_NE BOM_R64_SE BOM_R64_SW BOM_R64_NW BOM_ROCI BOM_POCI BOM_EYE BOM_POS_METHOD BOM_PRES_METHOD NADI_LAT NADI_LON NADI_CAT NADI_WIND NADI_PRES WELLINGTON_LAT WELLINGTON_LON WELLINGTON_WIND WELLINGTON_PRES DS824_LAT DS824_LON DS824_STAGE DS824_WIND DS824_PRES TD9636_LAT TD9636_LON TD9636_STAGE TD9636_WIND TD9636_PRES TD9635_LAT TD9635_LON TD9635_WIND TD9635_PRES TD9635_ROCI NEUMANN_LAT NEUMANN_LON NEUMANN_CLASS NEUMANN_WIND NEUMANN_PRES MLC_LAT MLC_LON MLC_CLASS MLC_WIND MLC_PRES USA_GUST BOM_GUST BOM_GUST_PER REUNION_GUST REUNION_GUST_PER USA_SEAHGT USA_SEARAD_NE USA_SEARAD_SE USA_SEARAD_SW USA_SEARAD_NW STORM_SPEED STORM_DIR
1892281N14143 1892 51 WP MM NOT_NAMED 1892-10-06 16:00:00 NR 13.6000 142.800 main 1776 1597 __________O___ -1 13.6000 142.800 7 76 277
1892281N14143 1892 51 WP MM NOT_NAMED 1892-10-06 18:00:00 NR 13.9237 140.220 main 1597 1214 __________P___ -1 13.9237 140.220 7 74 277
1892281N14143 1892 51 WP MM NOT_NAMED 1892-10-06 21:00:00 NR 14.3465 136.497 main 1214 878 __________P___ -1 14.3465 136.497 7 68 276
1892281N14143 1892 51 WP MM NOT_NAMED 1892-10-07 00:00:00 NR 14.6821 133.231 main 878 638 __________P___ -1 14.6821 133.231 7 56 276
1892281N14143 1892 51 WP MM NOT_NAMED 1892-10-07 03:00:00 NR 14.9331 130.720 main 638 597 __________P___ -1 14.9331 130.720 7 46 276
1892281N14143 1892 51 WP MM NOT_NAMED 1892-10-07 04:00:00 NR 15.0000 130.100 main 587 515 __________O___ -1 15.0000 130.100 7 29 277
1892281N14143 1892 51 WP MM NOT_NAMED 1892-10-07 06:00:00 NR 15.1130 129.213 main 515 474 __________P___ -1 15.1130 129.213 7 18 280
1892281N14143 1892 51 WP MM NOT_NAMED 1892-10-07 09:00:00 NR 15.2474 128.587 main 474 468 __________P___ -1 15.2474 128.587 7 7 290
1892281N14143 1892 51 WP MM NOT_NAMED 1892-10-07 12:00:00 NR 15.3591 128.494 main 472 472 __________P___ -1 15.3591 128.494 7 2 2
1892281N14143 1892 51 WP MM NOT_NAMED 1892-10-07 15:00:00 NR 15.4640 128.588 main 486 486 __________P___ -1 15.4640 128.588 7 3 37
1892281N14143 1892 51 WP MM NOT_NAMED 1892-10-07 16:00:00 NR 15.5000 128.600 main 486 466 __________O___ -1 15.5000 128.600 7 5 293
1892281N14143 1892 51 WP MM NOT_NAMED 1892-10-07 18:00:00 NR 15.5596 128.352 main 470 431 __________P___ -1 15.5596 128.352 7 7 284
1892281N14143 1892 51 WP MM NOT_NAMED 1892-10-07 21:00:00 NR 15.6485 127.981 main 431 398 __________P___ -1 15.6485 127.981 7 7 286
1892281N14143 1892 51 WP MM NOT_NAMED 1892-10-08 00:00:00 NR 15.7619 127.607 main 404 375 __________P___ -1 15.7619 127.607 7 8 291
1892281N14143 1892 51 WP MM NOT_NAMED 1892-10-08 03:00:00 NR 15.9281 127.228 main 375 373 __________P___ -1 15.9281 127.228 7 8 296
1892281N14143 1892 51 WP MM NOT_NAMED 1892-10-08 04:00:00 NR 16.0000 127.100 main 373 364 __________O___ -1 16.0000 127.100 3 9 304
1892281N14143 1892 51 WP MM NOT_NAMED 1892-10-08 06:00:00 NR 16.1766 126.837 main 364 356 __________P___ -1 16.1766 126.837 3 10 308
1892281N14143 1892 51 WP MM NOT_NAMED 1892-10-08 09:00:00 NR 16.4983 126.435 main 359 359 __________P___ -1 16.4983 126.435 3 10 312
1892281N14143 1892 51 WP MM NOT_NAMED 1892-10-08 12:00:00 NR 16.8686 126.031 main 372 331 __________P___ -1 16.8686 126.031 3 11 315
1892281N14143 1892 51 WP MM NOT_NAMED 1892-10-08 15:00:00 NR 17.2655 125.631 main 331 321 __________P___ -1 17.2655 125.631 3 11 316
1892281N14143 1892 51 WP MM NOT_NAMED 1892-10-08 16:00:00 NR 17.4000 125.500 main 321 297 __________O___ -1 17.4000 125.500 4 11 317
1892281N14143 1892 51 WP MM NOT_NAMED 1892-10-08 18:00:00 NR 17.6681 125.244 main 297 275 __________P___ -1 17.6681 125.244 4 11 319
1892281N14143 1892 51 WP MM NOT_NAMED 1892-10-08 21:00:00 NR 18.0834 124.867 main 275 232 __________P___ -1 18.0834 124.867 4 11 319
1892281N14143 1892 51 WP MM NOT_NAMED 1892-10-09 00:00:00 NR 18.4950 124.495 main 232 197 __________P___ -1 18.4950 124.495 4 11 319
1892281N14143 1892 51 WP MM NOT_NAMED 1892-10-09 03:00:00 NR 18.8809 124.124 main 197 191 __________P___ -1 18.8809 124.124 4 10 317
1892281N14143 1892 51 WP MM NOT_NAMED 1892-10-09 04:00:00 NR 19.0000 124.000 main 191 176 __________O___ -1 19.0000 124.000 4 10 312
1892281N14143 1892 51 WP MM NOT_NAMED 1892-10-09 06:00:00 NR 19.2012 123.752 main 181 160 __________P___ -1 19.2012 123.752 4 9 309
1892281N14143 1892 51 WP MM NOT_NAMED 1892-10-09 09:00:00 NR 19.4713 123.380 main 168 158 __________P___ -1 19.4713 123.380 4 9 307
1892281N14143 1892 51 WP MM NOT_NAMED 1892-10-09 12:00:00 NR 19.7285 123.007 main 162 162 __________P___ -1 19.7285 123.007 4 9 307
1892281N14143 1892 51 WP MM NOT_NAMED 1892-10-09 15:00:00 NR 20.0009 122.628 main 181 181 __________P___ -1 20.0009 122.628 4 9 308
1892281N14143 1892 51 WP MM NOT_NAMED 1892-10-09 16:00:00 NR 20.1000 122.500 main 191 191 __________O___ -1 20.1000 122.500 4 10 308
1892281N14143 1892 51 WP MM NOT_NAMED 1892-10-09 18:00:00 NR 20.3170 122.205 main 212 163 __________P___ -1 20.3170 122.205 4 11 309
1892281N14143 1892 51 WP MM NOT_NAMED 1892-10-09 21:00:00 NR 20.6674 121.756 main 163 108 __________P___ -1 20.6674 121.756 4 11 312
1892281N14143 1892 51 WP MM NOT_NAMED 1892-10-10 00:00:00 NR 21.0473 121.337 main 108 45 __________P___ -1 21.0473 121.337 4 11 318
1892281N14143 1892 51 WP MM NOT_NAMED 1892-10-10 03:00:00 NR 21.4569 120.991 main 45 33 __________P___ -1 21.4569 120.991 4 10 324
1892281N14143 1892 51 WP MM NOT_NAMED 1892-10-10 04:00:00 NR 21.6000 120.900 main 33 0 __________O___ -1 21.6000 120.900 4 10 332
1892281N14143 1892 51 WP MM NOT_NAMED 1892-10-10 06:00:00 NR 21.8829 120.744 main 0 0 __________P___ -1 21.8829 120.744 4 9 339
1892281N14143 1892 51 WP MM NOT_NAMED 1892-10-10 09:00:00 NR 22.3325 120.592 main 0 0 __________P___ -1 22.3325 120.592 4 10 348
1892281N14143 1892 51 WP MM NOT_NAMED 1892-10-10 12:00:00 NR 22.8127 120.535 main 0 0 __________P___ -1 22.8127 120.535 4 10 359
1892281N14143 1892 51 WP MM NOT_NAMED 1892-10-10 15:00:00 NR 23.3231 120.569 main 0 0 __________P___ -1 23.3231 120.569 4 10 5
1892281N14143 1892 51 WP MM NOT_NAMED 1892-10-10 16:00:00 NR 23.5000 120.600 main 0 0 __________O___ -1 23.5000 120.600 4 11 11
1892281N14143 1892 51 WP MM NOT_NAMED 1892-10-10 18:00:00 NR 23.8633 120.690 main 0 0 __________P___ -1 23.8633 120.690 4 12 16
1892281N14143 1892 51 WP MM NOT_NAMED 1892-10-10 21:00:00 NR 24.4283 120.883 main 0 0 __________P___ -1 24.4283 120.883 4 12 19
1892281N14143 1892 51 WP MM NOT_NAMED 1892-10-11 00:00:00 NR 25.0105 121.128 main 0 0 __________P___ -1 25.0105 121.128 4 13 22
1892281N14143 1892 51 WP MM NOT_NAMED 1892-10-11 03:00:00 NR 25.6020 121.405 main 44 44 __________P___ -1 25.6020 121.405 4 13 23
1892281N14143 1892 51 WP MM NOT_NAMED 1892-10-11 04:00:00 NR 25.8000 121.500 main 67 __________O___ -1 25.8000 121.500 4 13 24

デジタル台風データ・検索

IBTrACS Databaseについて

本データベースは、米国NOAAが公開する1842年以降の世界の熱帯低気圧のベストトラックデータアーカイブInternational Best Track Archive for Climate Stewardship (IBTrACS)を、ウェブで閲覧しやすい形式に変換したものです。

最終更新日:2021-12-06